sensor_id;sensor_type;location;lat;lon;timestamp;P1;durP1;ratioP1;P2;durP2;ratioP2
54412;SDS011;41533;51.390;0.074;2023-09-19T00:01:59;2.88;;;0.60;;
54412;SDS011;41533;51.390;0.074;2023-09-19T00:04:27;1.25;;;0.47;;
54412;SDS011;41533;51.390;0.074;2023-09-19T00:06:58;0.38;;;0.38;;
54412;SDS011;41533;51.390;0.074;2023-09-19T00:09:25;1.15;;;0.60;;
54412;SDS011;41533;51.390;0.074;2023-09-19T00:11:54;0.55;;;0.43;;
54412;SDS011;41533;51.390;0.074;2023-09-19T00:14:24;0.65;;;0.40;;
54412;SDS011;41533;51.390;0.074;2023-09-19T00:16:51;1.50;;;0.77;;
54412;SDS011;41533;51.390;0.074;2023-09-19T00:19:19;1.92;;;0.60;;
54412;SDS011;41533;51.390;0.074;2023-09-19T00:21:46;2.20;;;0.70;;
54412;SDS011;41533;51.390;0.074;2023-09-19T00:24:14;1.70;;;0.82;;
54412;SDS011;41533;51.390;0.074;2023-09-19T00:26:41;1.00;;;0.50;;
54412;SDS011;41533;51.390;0.074;2023-09-19T00:29:08;1.73;;;0.65;;
54412;SDS011;41533;51.390;0.074;2023-09-19T00:31:36;7.07;;;1.13;;
54412;SDS011;41533;51.390;0.074;2023-09-19T00:34:04;0.50;;;0.50;;
54412;SDS011;41533;51.390;0.074;2023-09-19T00:36:33;1.15;;;0.68;;
54412;SDS011;41533;51.390;0.074;2023-09-19T00:39:06;1.63;;;0.73;;
54412;SDS011;41533;51.390;0.074;2023-09-19T00:41:33;0.65;;;0.45;;
54412;SDS011;41533;51.390;0.074;2023-09-19T00:44:02;1.55;;;0.70;;
54412;SDS011;41533;51.390;0.074;2023-09-19T00:46:31;1.33;;;0.82;;
54412;SDS011;41533;51.390;0.074;2023-09-19T00:48:59;1.08;;;0.35;;
54412;SDS011;41533;51.390;0.074;2023-09-19T00:51:27;2.40;;;0.55;;
54412;SDS011;41533;51.390;0.074;2023-09-19T00:53:54;2.55;;;0.90;;
54412;SDS011;41533;51.390;0.074;2023-09-19T00:56:24;3.25;;;0.80;;
54412;SDS011;41533;51.390;0.074;2023-09-19T00:58:52;2.13;;;0.82;;
54412;SDS011;41533;51.390;0.074;2023-09-19T01:01:19;1.02;;;0.47;;
54412;SDS011;41533;51.390;0.074;2023-09-19T01:03:49;3.38;;;0.80;;
54412;SDS011;41533;51.390;0.074;2023-09-19T01:06:17;3.25;;;0.57;;
54412;SDS011;41533;51.390;0.074;2023-09-19T01:08:44;1.10;;;0.40;;
54412;SDS011;41533;51.390;0.074;2023-09-19T01:11:14;1.02;;;0.60;;
54412;SDS011;41533;51.390;0.074;2023-09-19T01:13:55;3.50;;;1.33;;
54412;SDS011;41533;51.390;0.074;2023-09-19T01:29:48;2.17;;;0.65;;
54412;SDS011;41533;51.390;0.074;2023-09-19T01:32:20;4.65;;;0.73;;
54412;SDS011;41533;51.390;0.074;2023-09-19T01:34:53;1.25;;;0.80;;
54412;SDS011;41533;51.390;0.074;2023-09-19T01:37:23;1.63;;;0.65;;
54412;SDS011;41533;51.390;0.074;2023-09-19T01:39:55;3.03;;;1.05;;
54412;SDS011;41533;51.390;0.074;2023-09-19T01:45:15;3.40;;;0.80;;
54412;SDS011;41533;51.390;0.074;2023-09-19T01:47:46;4.00;;;0.68;;
54412;SDS011;41533;51.390;0.074;2023-09-19T01:52:59;2.15;;;0.68;;
54412;SDS011;41533;51.390;0.074;2023-09-19T01:55:33;2.45;;;0.70;;
54412;SDS011;41533;51.390;0.074;2023-09-19T01:58:07;3.03;;;0.85;;
54412;SDS011;41533;51.390;0.074;2023-09-19T02:00:36;3.92;;;0.95;;
54412;SDS011;41533;51.390;0.074;2023-09-19T02:03:04;6.13;;;1.27;;
54412;SDS011;41533;51.390;0.074;2023-09-19T02:05:32;1.02;;;0.57;;
54412;SDS011;41533;51.390;0.074;2023-09-19T02:08:00;1.20;;;0.50;;
54412;SDS011;41533;51.390;0.074;2023-09-19T02:10:27;1.70;;;0.85;;
54412;SDS011;41533;51.390;0.074;2023-09-19T02:12:55;3.08;;;0.73;;
54412;SDS011;41533;51.390;0.074;2023-09-19T02:15:26;3.55;;;0.85;;
54412;SDS011;41533;51.390;0.074;2023-09-19T02:17:54;2.03;;;0.80;;
54412;SDS011;41533;51.390;0.074;2023-09-19T02:20:23;2.10;;;0.70;;
54412;SDS011;41533;51.390;0.074;2023-09-19T02:22:51;1.80;;;0.68;;
54412;SDS011;41533;51.390;0.074;2023-09-19T02:25:19;2.75;;;1.13;;
54412;SDS011;41533;51.390;0.074;2023-09-19T02:27:46;3.20;;;0.88;;
54412;SDS011;41533;51.390;0.074;2023-09-19T02:30:14;2.08;;;0.90;;
54412;SDS011;41533;51.390;0.074;2023-09-19T02:32:43;0.40;;;0.40;;
54412;SDS011;41533;51.390;0.074;2023-09-19T02:35:10;0.60;;;0.50;;
54412;SDS011;41533;51.390;0.074;2023-09-19T02:37:38;1.73;;;0.65;;
54412;SDS011;41533;51.390;0.074;2023-09-19T02:40:05;2.95;;;0.93;;
54412;SDS011;41533;51.390;0.074;2023-09-19T02:42:48;3.28;;;0.77;;
54412;SDS011;41533;51.390;0.074;2023-09-19T02:45:19;2.75;;;0.95;;
54412;SDS011;41533;51.390;0.074;2023-09-19T02:47:47;4.85;;;0.77;;
54412;SDS011;41533;51.390;0.074;2023-09-19T02:50:15;2.75;;;1.08;;
54412;SDS011;41533;51.390;0.074;2023-09-19T02:52:43;3.00;;;1.15;;
54412;SDS011;41533;51.390;0.074;2023-09-19T02:55:14;2.63;;;0.85;;
54412;SDS011;41533;51.390;0.074;2023-09-19T02:57:45;1.25;;;0.80;;
54412;SDS011;41533;51.390;0.074;2023-09-19T03:00:13;2.25;;;0.40;;
54412;SDS011;41533;51.390;0.074;2023-09-19T03:02:40;2.13;;;0.80;;
54412;SDS011;41533;51.390;0.074;2023-09-19T03:05:08;1.02;;;0.60;;
54412;SDS011;41533;51.390;0.074;2023-09-19T03:07:38;2.88;;;0.70;;
54412;SDS011;41533;51.390;0.074;2023-09-19T03:10:06;2.30;;;0.75;;
54412;SDS011;41533;51.390;0.074;2023-09-19T03:12:34;2.20;;;0.73;;
54412;SDS011;41533;51.390;0.074;2023-09-19T03:15:02;1.60;;;0.75;;
54412;SDS011;41533;51.390;0.074;2023-09-19T03:17:31;1.70;;;1.15;;
54412;SDS011;41533;51.390;0.074;2023-09-19T03:19:59;1.83;;;0.77;;
54412;SDS011;41533;51.390;0.074;2023-09-19T03:22:27;1.65;;;0.57;;
54412;SDS011;41533;51.390;0.074;2023-09-19T03:24:54;1.15;;;0.70;;
54412;SDS011;41533;51.390;0.074;2023-09-19T03:27:22;1.67;;;0.98;;
54412;SDS011;41533;51.390;0.074;2023-09-19T03:29:51;0.80;;;0.80;;
54412;SDS011;41533;51.390;0.074;2023-09-19T03:32:18;1.48;;;1.00;;
54412;SDS011;41533;51.390;0.074;2023-09-19T03:34:46;4.25;;;0.80;;
54412;SDS011;41533;51.390;0.074;2023-09-19T03:37:16;1.00;;;0.60;;
54412;SDS011;41533;51.390;0.074;2023-09-19T03:39:44;1.67;;;0.70;;
54412;SDS011;41533;51.390;0.074;2023-09-19T03:42:11;1.73;;;0.80;;
54412;SDS011;41533;51.390;0.074;2023-09-19T03:44:39;3.85;;;1.08;;
54412;SDS011;41533;51.390;0.074;2023-09-19T03:47:06;4.45;;;0.98;;
54412;SDS011;41533;51.390;0.074;2023-09-19T03:49:34;2.97;;;0.63;;
54412;SDS011;41533;51.390;0.074;2023-09-19T03:52:01;0.73;;;0.52;;
54412;SDS011;41533;51.390;0.074;2023-09-19T03:54:30;1.95;;;0.75;;
54412;SDS011;41533;51.390;0.074;2023-09-19T03:56:57;2.67;;;0.75;;
54412;SDS011;41533;51.390;0.074;2023-09-19T03:59:24;3.08;;;1.00;;
54412;SDS011;41533;51.390;0.074;2023-09-19T04:01:51;1.00;;;0.63;;
54412;SDS011;41533;51.390;0.074;2023-09-19T04:04:23;3.03;;;0.82;;
54412;SDS011;41533;51.390;0.074;2023-09-19T04:06:52;0.80;;;0.55;;
54412;SDS011;41533;51.390;0.074;2023-09-19T04:09:19;3.33;;;0.90;;
54412;SDS011;41533;51.390;0.074;2023-09-19T04:11:46;4.97;;;1.48;;
54412;SDS011;41533;51.390;0.074;2023-09-19T04:14:13;3.92;;;0.60;;
54412;SDS011;41533;51.390;0.074;2023-09-19T04:16:41;1.98;;;0.65;;
54412;SDS011;41533;51.390;0.074;2023-09-19T04:19:08;3.30;;;0.88;;
54412;SDS011;41533;51.390;0.074;2023-09-19T04:21:38;6.93;;;1.15;;
54412;SDS011;41533;51.390;0.074;2023-09-19T04:24:06;1.52;;;0.75;;
54412;SDS011;41533;51.390;0.074;2023-09-19T04:26:33;0.95;;;0.55;;
54412;SDS011;41533;51.390;0.074;2023-09-19T04:29:00;1.85;;;0.57;;
54412;SDS011;41533;51.390;0.074;2023-09-19T04:31:28;2.08;;;0.75;;
54412;SDS011;41533;51.390;0.074;2023-09-19T04:33:56;0.60;;;0.50;;
54412;SDS011;41533;51.390;0.074;2023-09-19T04:36:24;2.22;;;0.73;;
54412;SDS011;41533;51.390;0.074;2023-09-19T04:39:01;2.30;;;1.00;;
54412;SDS011;41533;51.390;0.074;2023-09-19T04:41:32;1.95;;;0.85;;
54412;SDS011;41533;51.390;0.074;2023-09-19T04:43:59;2.42;;;0.60;;
54412;SDS011;41533;51.390;0.074;2023-09-19T04:46:27;1.77;;;0.80;;
54412;SDS011;41533;51.390;0.074;2023-09-19T04:48:54;0.82;;;0.57;;
54412;SDS011;41533;51.390;0.074;2023-09-19T04:51:21;0.50;;;0.50;;
54412;SDS011;41533;51.390;0.074;2023-09-19T04:53:48;2.20;;;0.55;;
54412;SDS011;41533;51.390;0.074;2023-09-19T04:56:24;0.93;;;0.55;;
54412;SDS011;41533;51.390;0.074;2023-09-19T04:58:54;1.63;;;0.50;;
54412;SDS011;41533;51.390;0.074;2023-09-19T05:01:24;0.30;;;0.30;;
54412;SDS011;41533;51.390;0.074;2023-09-19T05:03:51;2.83;;;0.73;;
54412;SDS011;41533;51.390;0.074;2023-09-19T05:06:19;3.58;;;0.90;;
54412;SDS011;41533;51.390;0.074;2023-09-19T05:08:50;5.32;;;1.05;;
54412;SDS011;41533;51.390;0.074;2023-09-19T05:11:19;3.63;;;0.93;;
54412;SDS011;41533;51.390;0.074;2023-09-19T05:13:48;3.85;;;0.88;;
54412;SDS011;41533;51.390;0.074;2023-09-19T05:16:17;4.40;;;1.55;;
54412;SDS011;41533;51.390;0.074;2023-09-19T05:18:47;2.22;;;0.70;;
54412;SDS011;41533;51.390;0.074;2023-09-19T05:21:19;2.05;;;0.68;;
54412;SDS011;41533;51.390;0.074;2023-09-19T05:23:47;3.90;;;1.08;;
54412;SDS011;41533;51.390;0.074;2023-09-19T05:26:14;2.70;;;0.80;;
54412;SDS011;41533;51.390;0.074;2023-09-19T05:28:43;3.00;;;0.85;;
54412;SDS011;41533;51.390;0.074;2023-09-19T05:31:10;1.88;;;0.68;;
54412;SDS011;41533;51.390;0.074;2023-09-19T05:33:38;1.33;;;0.77;;
54412;SDS011;41533;51.390;0.074;2023-09-19T05:36:05;1.55;;;0.57;;
54412;SDS011;41533;51.390;0.074;2023-09-19T05:38:32;1.55;;;0.75;;
54412;SDS011;41533;51.390;0.074;2023-09-19T05:40:59;3.10;;;0.80;;
54412;SDS011;41533;51.390;0.074;2023-09-19T05:43:28;2.75;;;0.82;;
54412;SDS011;41533;51.390;0.074;2023-09-19T05:45:55;4.93;;;1.10;;
54412;SDS011;41533;51.390;0.074;2023-09-19T05:48:23;3.60;;;0.50;;
54412;SDS011;41533;51.390;0.074;2023-09-19T05:50:50;1.65;;;0.80;;
54412;SDS011;41533;51.390;0.074;2023-09-19T05:53:18;3.20;;;0.70;;
54412;SDS011;41533;51.390;0.074;2023-09-19T05:55:46;1.17;;;0.52;;
54412;SDS011;41533;51.390;0.074;2023-09-19T05:58:14;0.98;;;0.55;;
54412;SDS011;41533;51.390;0.074;2023-09-19T06:00:41;2.38;;;0.85;;
54412;SDS011;41533;51.390;0.074;2023-09-19T06:03:10;2.17;;;0.93;;
54412;SDS011;41533;51.390;0.074;2023-09-19T06:05:39;2.10;;;0.75;;
54412;SDS011;41533;51.390;0.074;2023-09-19T06:08:08;4.13;;;1.15;;
54412;SDS011;41533;51.390;0.074;2023-09-19T06:10:36;5.25;;;0.77;;
54412;SDS011;41533;51.390;0.074;2023-09-19T06:13:04;0.32;;;0.30;;
54412;SDS011;41533;51.390;0.074;2023-09-19T06:15:32;1.70;;;0.60;;
54412;SDS011;41533;51.390;0.074;2023-09-19T06:18:00;1.88;;;0.55;;
54412;SDS011;41533;51.390;0.074;2023-09-19T06:20:29;0.85;;;0.60;;
54412;SDS011;41533;51.390;0.074;2023-09-19T06:22:57;1.48;;;0.40;;
54412;SDS011;41533;51.390;0.074;2023-09-19T06:25:24;1.30;;;0.63;;
54412;SDS011;41533;51.390;0.074;2023-09-19T06:27:52;2.10;;;0.40;;
54412;SDS011;41533;51.390;0.074;2023-09-19T06:30:21;1.52;;;0.57;;
54412;SDS011;41533;51.390;0.074;2023-09-19T06:32:55;3.40;;;0.65;;
54412;SDS011;41533;51.390;0.074;2023-09-19T06:35:22;2.20;;;0.68;;
54412;SDS011;41533;51.390;0.074;2023-09-19T06:37:50;2.22;;;0.45;;
54412;SDS011;41533;51.390;0.074;2023-09-19T06:40:18;2.20;;;0.75;;
54412;SDS011;41533;51.390;0.074;2023-09-19T06:42:46;0.77;;;0.70;;
54412;SDS011;41533;51.390;0.074;2023-09-19T06:45:14;1.05;;;0.40;;
54412;SDS011;41533;51.390;0.074;2023-09-19T06:47:45;2.15;;;0.60;;
54412;SDS011;41533;51.390;0.074;2023-09-19T06:50:13;1.65;;;0.65;;
54412;SDS011;41533;51.390;0.074;2023-09-19T06:52:44;0.55;;;0.32;;
54412;SDS011;41533;51.390;0.074;2023-09-19T06:55:13;1.92;;;0.40;;
54412;SDS011;41533;51.390;0.074;2023-09-19T06:57:43;3.13;;;1.00;;
54412;SDS011;41533;51.390;0.074;2023-09-19T07:00:11;1.17;;;0.50;;
54412;SDS011;41533;51.390;0.074;2023-09-19T07:03:10;3.60;;;0.95;;
54412;SDS011;41533;51.390;0.074;2023-09-19T07:05:40;1.95;;;0.57;;
54412;SDS011;41533;51.390;0.074;2023-09-19T07:08:08;0.82;;;0.28;;
54412;SDS011;41533;51.390;0.074;2023-09-19T07:10:38;1.08;;;0.75;;
54412;SDS011;41533;51.390;0.074;2023-09-19T07:13:07;2.45;;;0.73;;
54412;SDS011;41533;51.390;0.074;2023-09-19T07:15:38;2.03;;;0.80;;
54412;SDS011;41533;51.390;0.074;2023-09-19T07:18:09;2.30;;;0.60;;
54412;SDS011;41533;51.390;0.074;2023-09-19T07:20:38;2.17;;;0.98;;
54412;SDS011;41533;51.390;0.074;2023-09-19T07:23:05;0.25;;;0.22;;
54412;SDS011;41533;51.390;0.074;2023-09-19T07:25:34;0.68;;;0.40;;
54412;SDS011;41533;51.390;0.074;2023-09-19T07:28:02;1.08;;;0.50;;
54412;SDS011;41533;51.390;0.074;2023-09-19T07:30:30;2.42;;;0.50;;
54412;SDS011;41533;51.390;0.074;2023-09-19T07:32:57;0.98;;;0.85;;
54412;SDS011;41533;51.390;0.074;2023-09-19T07:35:25;3.08;;;0.90;;
54412;SDS011;41533;51.390;0.074;2023-09-19T07:37:52;0.47;;;0.40;;
54412;SDS011;41533;51.390;0.074;2023-09-19T07:40:22;0.57;;;0.38;;
54412;SDS011;41533;51.390;0.074;2023-09-19T07:42:53;2.58;;;0.50;;
54412;SDS011;41533;51.390;0.074;2023-09-19T07:45:23;4.57;;;0.57;;
54412;SDS011;41533;51.390;0.074;2023-09-19T07:47:52;2.92;;;0.45;;
54412;SDS011;41533;51.390;0.074;2023-09-19T07:50:19;3.03;;;0.45;;
54412;SDS011;41533;51.390;0.074;2023-09-19T07:52:47;1.52;;;0.75;;
54412;SDS011;41533;51.390;0.074;2023-09-19T07:55:15;3.17;;;0.60;;
54412;SDS011;41533;51.390;0.074;2023-09-19T07:57:47;1.58;;;0.55;;
54412;SDS011;41533;51.390;0.074;2023-09-19T08:00:17;0.82;;;0.65;;
54412;SDS011;41533;51.390;0.074;2023-09-19T08:02:44;0.88;;;0.70;;
54412;SDS011;41533;51.390;0.074;2023-09-19T08:05:12;1.02;;;0.47;;
54412;SDS011;41533;51.390;0.074;2023-09-19T08:10:20;2.08;;;0.93;;
54412;SDS011;41533;51.390;0.074;2023-09-19T08:12:48;1.83;;;0.70;;
54412;SDS011;41533;51.390;0.074;2023-09-19T08:15:19;3.67;;;1.17;;
54412;SDS011;41533;51.390;0.074;2023-09-19T08:17:47;3.90;;;0.70;;
54412;SDS011;41533;51.390;0.074;2023-09-19T08:20:15;1.95;;;0.88;;
54412;SDS011;41533;51.390;0.074;2023-09-19T08:22:49;3.33;;;1.08;;
54412;SDS011;41533;51.390;0.074;2023-09-19T08:25:23;0.80;;;0.70;;
54412;SDS011;41533;51.390;0.074;2023-09-19T08:27:52;1.33;;;0.80;;
54412;SDS011;41533;51.390;0.074;2023-09-19T08:30:20;7.20;;;1.63;;
54412;SDS011;41533;51.390;0.074;2023-09-19T08:32:56;3.57;;;1.00;;
54412;SDS011;41533;51.390;0.074;2023-09-19T08:35:24;3.95;;;0.95;;
54412;SDS011;41533;51.390;0.074;2023-09-19T08:37:54;1.77;;;0.95;;
54412;SDS011;41533;51.390;0.074;2023-09-19T08:40:22;4.22;;;1.10;;
54412;SDS011;41533;51.390;0.074;2023-09-19T08:42:51;5.13;;;1.65;;
54412;SDS011;41533;51.390;0.074;2023-09-19T08:45:19;1.63;;;0.98;;
54412;SDS011;41533;51.390;0.074;2023-09-19T08:47:50;5.82;;;1.25;;
54412;SDS011;41533;51.390;0.074;2023-09-19T08:50:26;3.53;;;1.63;;
54412;SDS011;41533;51.390;0.074;2023-09-19T08:52:55;3.97;;;1.35;;
54412;SDS011;41533;51.390;0.074;2023-09-19T08:55:26;2.50;;;1.30;;
54412;SDS011;41533;51.390;0.074;2023-09-19T08:58:01;1.48;;;1.08;;
54412;SDS011;41533;51.390;0.074;2023-09-19T09:00:30;1.95;;;0.75;;
54412;SDS011;41533;51.390;0.074;2023-09-19T09:02:58;3.80;;;1.40;;
54412;SDS011;41533;51.390;0.074;2023-09-19T09:05:25;4.38;;;1.20;;
54412;SDS011;41533;51.390;0.074;2023-09-19T09:08:00;1.10;;;0.82;;
54412;SDS011;41533;51.390;0.074;2023-09-19T09:10:28;4.25;;;0.98;;
54412;SDS011;41533;51.390;0.074;2023-09-19T09:12:58;5.53;;;1.58;;
54412;SDS011;41533;51.390;0.074;2023-09-19T09:15:26;2.60;;;1.08;;
54412;SDS011;41533;51.390;0.074;2023-09-19T09:17:53;7.40;;;1.60;;
54412;SDS011;41533;51.390;0.074;2023-09-19T09:20:21;2.72;;;0.95;;
54412;SDS011;41533;51.390;0.074;2023-09-19T09:22:52;5.35;;;1.50;;
54412;SDS011;41533;51.390;0.074;2023-09-19T09:25:24;14.23;;;2.15;;
54412;SDS011;41533;51.390;0.074;2023-09-19T09:28:11;4.22;;;1.80;;
54412;SDS011;41533;51.390;0.074;2023-09-19T09:30:46;4.97;;;1.48;;
54412;SDS011;41533;51.390;0.074;2023-09-19T09:33:14;3.85;;;1.23;;
54412;SDS011;41533;51.390;0.074;2023-09-19T09:35:49;1.92;;;1.38;;
54412;SDS011;41533;51.390;0.074;2023-09-19T09:38:19;2.22;;;1.30;;
54412;SDS011;41533;51.390;0.074;2023-09-19T09:40:48;4.10;;;1.42;;
54412;SDS011;41533;51.390;0.074;2023-09-19T09:43:30;3.92;;;1.48;;
54412;SDS011;41533;51.390;0.074;2023-09-19T09:48:56;3.90;;;1.27;;
54412;SDS011;41533;51.390;0.074;2023-09-19T09:51:49;5.50;;;1.80;;
54412;SDS011;41533;51.390;0.074;2023-09-19T09:54:27;2.97;;;1.27;;
54412;SDS011;41533;51.390;0.074;2023-09-19T09:57:07;8.15;;;2.13;;
54412;SDS011;41533;51.390;0.074;2023-09-19T09:59:44;3.85;;;1.67;;
54412;SDS011;41533;51.390;0.074;2023-09-19T10:02:18;4.28;;;1.65;;
54412;SDS011;41533;51.390;0.074;2023-09-19T10:04:52;4.55;;;1.67;;
54412;SDS011;41533;51.390;0.074;2023-09-19T10:07:29;3.78;;;1.15;;
54412;SDS011;41533;51.390;0.074;2023-09-19T10:10:01;8.07;;;1.75;;
54412;SDS011;41533;51.390;0.074;2023-09-19T10:12:38;5.80;;;1.33;;
54412;SDS011;41533;51.390;0.074;2023-09-19T10:15:06;5.13;;;1.50;;
54412;SDS011;41533;51.390;0.074;2023-09-19T10:17:36;7.50;;;1.90;;
54412;SDS011;41533;51.390;0.074;2023-09-19T10:20:03;10.73;;;2.08;;
54412;SDS011;41533;51.390;0.074;2023-09-19T10:25:04;9.50;;;2.78;;
54412;SDS011;41533;51.390;0.074;2023-09-19T10:27:32;2.67;;;0.98;;
54412;SDS011;41533;51.390;0.074;2023-09-19T10:30:05;4.38;;;1.55;;
54412;SDS011;41533;51.390;0.074;2023-09-19T10:32:35;4.10;;;2.03;;
54412;SDS011;41533;51.390;0.074;2023-09-19T10:35:06;5.60;;;1.77;;
54412;SDS011;41533;51.390;0.074;2023-09-19T10:37:34;5.05;;;1.50;;
54412;SDS011;41533;51.390;0.074;2023-09-19T10:40:05;3.53;;;1.92;;
54412;SDS011;41533;51.390;0.074;2023-09-19T10:42:37;4.05;;;1.77;;
54412;SDS011;41533;51.390;0.074;2023-09-19T10:45:07;4.70;;;1.65;;
54412;SDS011;41533;51.390;0.074;2023-09-19T10:47:43;7.00;;;1.80;;
54412;SDS011;41533;51.390;0.074;2023-09-19T10:50:13;3.25;;;1.83;;
54412;SDS011;41533;51.390;0.074;2023-09-19T10:52:49;7.63;;;2.60;;
54412;SDS011;41533;51.390;0.074;2023-09-19T10:55:21;4.10;;;1.33;;
54412;SDS011;41533;51.390;0.074;2023-09-19T10:57:53;10.60;;;2.40;;
54412;SDS011;41533;51.390;0.074;2023-09-19T11:00:21;3.33;;;1.63;;
54412;SDS011;41533;51.390;0.074;2023-09-19T11:05:24;5.45;;;1.73;;
54412;SDS011;41533;51.390;0.074;2023-09-19T11:07:59;5.38;;;1.92;;
54412;SDS011;41533;51.390;0.074;2023-09-19T11:13:27;7.47;;;2.58;;
54412;SDS011;41533;51.390;0.074;2023-09-19T11:26:41;8.70;;;1.13;;
54412;SDS011;41533;51.390;0.074;2023-09-19T11:29:27;6.07;;;1.48;;
54412;SDS011;41533;51.390;0.074;2023-09-19T11:31:55;5.68;;;2.15;;
54412;SDS011;41533;51.390;0.074;2023-09-19T11:39:38;10.93;;;1.80;;
54412;SDS011;41533;51.390;0.074;2023-09-19T11:45:02;3.97;;;1.02;;
54412;SDS011;41533;51.390;0.074;2023-09-19T11:47:33;3.85;;;1.67;;
54412;SDS011;41533;51.390;0.074;2023-09-19T11:50:02;4.35;;;1.80;;
54412;SDS011;41533;51.390;0.074;2023-09-19T11:52:29;5.35;;;1.55;;
54412;SDS011;41533;51.390;0.074;2023-09-19T11:55:01;6.07;;;2.30;;
54412;SDS011;41533;51.390;0.074;2023-09-19T11:57:29;9.52;;;1.73;;
54412;SDS011;41533;51.390;0.074;2023-09-19T11:59:58;6.32;;;1.45;;
54412;SDS011;41533;51.390;0.074;2023-09-19T12:02:36;2.55;;;1.35;;
54412;SDS011;41533;51.390;0.074;2023-09-19T12:05:05;4.20;;;1.75;;
54412;SDS011;41533;51.390;0.074;2023-09-19T12:07:32;6.25;;;1.50;;
54412;SDS011;41533;51.390;0.074;2023-09-19T12:10:09;3.83;;;1.30;;
54412;SDS011;41533;51.390;0.074;2023-09-19T12:12:38;8.73;;;1.60;;
54412;SDS011;41533;51.390;0.074;2023-09-19T12:15:06;3.88;;;1.52;;
54412;SDS011;41533;51.390;0.074;2023-09-19T12:17:38;5.38;;;1.55;;
54412;SDS011;41533;51.390;0.074;2023-09-19T12:20:06;4.07;;;1.33;;
54412;SDS011;41533;51.390;0.074;2023-09-19T12:22:44;2.67;;;1.05;;
54412;SDS011;41533;51.390;0.074;2023-09-19T12:25:12;6.30;;;1.33;;
54412;SDS011;41533;51.390;0.074;2023-09-19T12:27:47;4.57;;;1.30;;
54412;SDS011;41533;51.390;0.074;2023-09-19T12:30:14;1.65;;;1.27;;
54412;SDS011;41533;51.390;0.074;2023-09-19T12:32:48;2.47;;;0.95;;
54412;SDS011;41533;51.390;0.074;2023-09-19T12:35:32;4.03;;;1.48;;
54412;SDS011;41533;51.390;0.074;2023-09-19T12:38:03;4.88;;;1.95;;
54412;SDS011;41533;51.390;0.074;2023-09-19T12:40:31;5.47;;;1.45;;
54412;SDS011;41533;51.390;0.074;2023-09-19T12:43:01;5.15;;;1.42;;
54412;SDS011;41533;51.390;0.074;2023-09-19T12:45:31;5.97;;;1.30;;
54412;SDS011;41533;51.390;0.074;2023-09-19T12:51:00;1.02;;;0.75;;
54412;SDS011;41533;51.390;0.074;2023-09-19T12:53:33;3.03;;;1.35;;
54412;SDS011;41533;51.390;0.074;2023-09-19T12:56:03;4.35;;;1.05;;
54412;SDS011;41533;51.390;0.074;2023-09-19T12:58:48;3.72;;;1.15;;
54412;SDS011;41533;51.390;0.074;2023-09-19T13:01:16;3.42;;;1.48;;
54412;SDS011;41533;51.390;0.074;2023-09-19T13:03:43;1.85;;;1.00;;
54412;SDS011;41533;51.390;0.074;2023-09-19T13:06:11;2.90;;;1.00;;
54412;SDS011;41533;51.390;0.074;2023-09-19T13:08:39;4.38;;;1.48;;
54412;SDS011;41533;51.390;0.074;2023-09-19T13:11:12;3.15;;;1.27;;
54412;SDS011;41533;51.390;0.074;2023-09-19T13:13:44;1.83;;;1.17;;
54412;SDS011;41533;51.390;0.074;2023-09-19T13:16:16;4.05;;;1.05;;
54412;SDS011;41533;51.390;0.074;2023-09-19T13:18:50;4.82;;;0.80;;
54412;SDS011;41533;51.390;0.074;2023-09-19T13:21:27;3.35;;;1.42;;
54412;SDS011;41533;51.390;0.074;2023-09-19T13:23:55;3.95;;;1.35;;
54412;SDS011;41533;51.390;0.074;2023-09-19T13:26:26;2.42;;;1.23;;
54412;SDS011;41533;51.390;0.074;2023-09-19T13:28:55;3.15;;;1.23;;
54412;SDS011;41533;51.390;0.074;2023-09-19T13:31:22;2.05;;;1.05;;
54412;SDS011;41533;51.390;0.074;2023-09-19T13:33:50;3.40;;;1.02;;
54412;SDS011;41533;51.390;0.074;2023-09-19T13:36:19;1.85;;;1.20;;
54412;SDS011;41533;51.390;0.074;2023-09-19T13:38:46;4.47;;;1.33;;
54412;SDS011;41533;51.390;0.074;2023-09-19T13:41:16;1.83;;;1.23;;
54412;SDS011;41533;51.390;0.074;2023-09-19T13:43:43;4.32;;;1.65;;
54412;SDS011;41533;51.390;0.074;2023-09-19T13:46:15;1.90;;;1.17;;
54412;SDS011;41533;51.390;0.074;2023-09-19T13:48:45;2.58;;;1.00;;
54412;SDS011;41533;51.390;0.074;2023-09-19T13:51:12;5.13;;;1.05;;
54412;SDS011;41533;51.390;0.074;2023-09-19T13:53:42;3.78;;;1.77;;
54412;SDS011;41533;51.390;0.074;2023-09-19T13:56:09;5.25;;;1.02;;
54412;SDS011;41533;51.390;0.074;2023-09-19T13:58:38;2.40;;;1.30;;
54412;SDS011;41533;51.390;0.074;2023-09-19T14:01:06;3.97;;;0.93;;
54412;SDS011;41533;51.390;0.074;2023-09-19T14:03:39;2.80;;;0.88;;
54412;SDS011;41533;51.390;0.074;2023-09-19T14:06:07;0.90;;;0.70;;
54412;SDS011;41533;51.390;0.074;2023-09-19T14:08:34;3.75;;;1.25;;
54412;SDS011;41533;51.390;0.074;2023-09-19T14:11:08;3.10;;;1.23;;
54412;SDS011;41533;51.390;0.074;2023-09-19T14:13:35;6.95;;;1.10;;
54412;SDS011;41533;51.390;0.074;2023-09-19T14:16:08;2.67;;;0.73;;
54412;SDS011;41533;51.390;0.074;2023-09-19T14:18:36;2.35;;;1.13;;
54412;SDS011;41533;51.390;0.074;2023-09-19T14:21:03;1.77;;;0.88;;
54412;SDS011;41533;51.390;0.074;2023-09-19T14:23:37;6.70;;;1.17;;
54412;SDS011;41533;51.390;0.074;2023-09-19T14:26:04;1.42;;;1.00;;
54412;SDS011;41533;51.390;0.074;2023-09-19T14:28:34;2.85;;;1.13;;
54412;SDS011;41533;51.390;0.074;2023-09-19T14:31:08;2.55;;;0.90;;
54412;SDS011;41533;51.390;0.074;2023-09-19T14:33:36;2.33;;;0.90;;
54412;SDS011;41533;51.390;0.074;2023-09-19T14:36:06;1.23;;;0.80;;
54412;SDS011;41533;51.390;0.074;2023-09-19T14:38:35;1.70;;;0.70;;
54412;SDS011;41533;51.390;0.074;2023-09-19T14:41:04;2.17;;;1.15;;
54412;SDS011;41533;51.390;0.074;2023-09-19T14:43:32;2.20;;;1.13;;
54412;SDS011;41533;51.390;0.074;2023-09-19T14:46:02;2.67;;;1.08;;
54412;SDS011;41533;51.390;0.074;2023-09-19T14:48:36;1.02;;;0.93;;
54412;SDS011;41533;51.390;0.074;2023-09-19T14:51:04;3.83;;;0.82;;
54412;SDS011;41533;51.390;0.074;2023-09-19T14:53:31;1.80;;;0.95;;
54412;SDS011;41533;51.390;0.074;2023-09-19T14:56:02;1.48;;;1.00;;
54412;SDS011;41533;51.390;0.074;2023-09-19T14:58:33;2.58;;;1.00;;
54412;SDS011;41533;51.390;0.074;2023-09-19T15:03:31;1.77;;;1.00;;
54412;SDS011;41533;51.390;0.074;2023-09-19T15:06:09;1.50;;;0.88;;
54412;SDS011;41533;51.390;0.074;2023-09-19T15:08:37;4.43;;;1.23;;
54412;SDS011;41533;51.390;0.074;2023-09-19T15:11:07;1.20;;;0.70;;
54412;SDS011;41533;51.390;0.074;2023-09-19T15:13:35;1.48;;;0.80;;
54412;SDS011;41533;51.390;0.074;2023-09-19T15:16:03;3.58;;;1.25;;
54412;SDS011;41533;51.390;0.074;2023-09-19T15:18:30;3.58;;;1.00;;
54412;SDS011;41533;51.390;0.074;2023-09-19T15:21:00;3.22;;;0.80;;
54412;SDS011;41533;51.390;0.074;2023-09-19T15:23:27;1.25;;;0.82;;
54412;SDS011;41533;51.390;0.074;2023-09-19T15:25:57;3.05;;;0.98;;
54412;SDS011;41533;51.390;0.074;2023-09-19T15:28:25;2.53;;;1.10;;
54412;SDS011;41533;51.390;0.074;2023-09-19T15:31:05;4.35;;;1.15;;
54412;SDS011;41533;51.390;0.074;2023-09-19T15:33:33;0.60;;;0.60;;
54412;SDS011;41533;51.390;0.074;2023-09-19T15:36:04;2.42;;;0.90;;
54412;SDS011;41533;51.390;0.074;2023-09-19T15:38:32;1.45;;;0.80;;
54412;SDS011;41533;51.390;0.074;2023-09-19T15:41:20;3.92;;;1.17;;
54412;SDS011;41533;51.390;0.074;2023-09-19T15:43:48;1.40;;;0.80;;
54412;SDS011;41533;51.390;0.074;2023-09-19T15:46:15;2.95;;;1.00;;
54412;SDS011;41533;51.390;0.074;2023-09-19T15:48:42;0.93;;;0.52;;
54412;SDS011;41533;51.390;0.074;2023-09-19T15:51:10;0.82;;;0.80;;
54412;SDS011;41533;51.390;0.074;2023-09-19T15:56:12;0.68;;;0.60;;
54412;SDS011;41533;51.390;0.074;2023-09-19T15:58:46;3.38;;;1.08;;
54412;SDS011;41533;51.390;0.074;2023-09-19T16:01:14;2.55;;;0.70;;
54412;SDS011;41533;51.390;0.074;2023-09-19T16:03:42;1.58;;;0.77;;